sensor_id;sensor_type;location;lat;lon;timestamp;P1;durP1;ratioP1;P2;durP2;ratioP2
6406;SDS011;3236;51.022;6.818;2023-07-09T00:02:23;9.82;;;6.05;;
6406;SDS011;3236;51.022;6.818;2023-07-09T00:04:51;12.13;;;6.30;;
6406;SDS011;3236;51.022;6.818;2023-07-09T00:07:19;11.95;;;6.07;;
6406;SDS011;3236;51.022;6.818;2023-07-09T00:09:50;11.35;;;5.80;;
6406;SDS011;3236;51.022;6.818;2023-07-09T00:12:19;9.85;;;5.55;;
6406;SDS011;3236;51.022;6.818;2023-07-09T00:14:46;11.10;;;5.47;;
6406;SDS011;3236;51.022;6.818;2023-07-09T00:17:18;10.00;;;5.95;;
6406;SDS011;3236;51.022;6.818;2023-07-09T00:19:47;12.07;;;6.15;;
6406;SDS011;3236;51.022;6.818;2023-07-09T00:22:15;11.02;;;6.20;;
6406;SDS011;3236;51.022;6.818;2023-07-09T00:24:43;10.38;;;5.65;;
6406;SDS011;3236;51.022;6.818;2023-07-09T00:27:11;10.30;;;5.72;;
6406;SDS011;3236;51.022;6.818;2023-07-09T00:29:39;10.98;;;6.13;;
6406;SDS011;3236;51.022;6.818;2023-07-09T00:32:10;10.52;;;6.80;;
6406;SDS011;3236;51.022;6.818;2023-07-09T00:34:40;10.35;;;5.93;;
6406;SDS011;3236;51.022;6.818;2023-07-09T00:37:14;11.27;;;6.35;;
6406;SDS011;3236;51.022;6.818;2023-07-09T00:39:42;13.35;;;5.78;;
6406;SDS011;3236;51.022;6.818;2023-07-09T00:42:11;10.82;;;6.18;;
6406;SDS011;3236;51.022;6.818;2023-07-09T00:44:44;12.25;;;5.90;;
6406;SDS011;3236;51.022;6.818;2023-07-09T00:50:11;12.63;;;6.45;;
6406;SDS011;3236;51.022;6.818;2023-07-09T00:52:49;13.30;;;6.45;;
6406;SDS011;3236;51.022;6.818;2023-07-09T00:55:22;11.23;;;6.88;;
6406;SDS011;3236;51.022;6.818;2023-07-09T00:57:52;15.15;;;6.70;;
6406;SDS011;3236;51.022;6.818;2023-07-09T01:00:27;9.45;;;5.45;;
6406;SDS011;3236;51.022;6.818;2023-07-09T01:03:00;9.10;;;6.40;;
6406;SDS011;3236;51.022;6.818;2023-07-09T01:05:33;11.88;;;5.95;;
6406;SDS011;3236;51.022;6.818;2023-07-09T01:08:00;12.05;;;6.68;;
6406;SDS011;3236;51.022;6.818;2023-07-09T01:10:28;13.68;;;5.88;;
6406;SDS011;3236;51.022;6.818;2023-07-09T01:12:55;13.15;;;6.65;;
6406;SDS011;3236;51.022;6.818;2023-07-09T01:15:22;12.15;;;6.13;;
6406;SDS011;3236;51.022;6.818;2023-07-09T01:17:50;13.60;;;5.93;;
6406;SDS011;3236;51.022;6.818;2023-07-09T01:20:18;12.90;;;5.90;;
6406;SDS011;3236;51.022;6.818;2023-07-09T01:22:49;15.25;;;5.72;;
6406;SDS011;3236;51.022;6.818;2023-07-09T01:25:23;8.68;;;5.45;;
6406;SDS011;3236;51.022;6.818;2023-07-09T01:27:51;11.48;;;5.97;;
6406;SDS011;3236;51.022;6.818;2023-07-09T01:30:23;14.27;;;5.93;;
6406;SDS011;3236;51.022;6.818;2023-07-09T01:32:55;11.52;;;6.03;;
6406;SDS011;3236;51.022;6.818;2023-07-09T01:35:23;10.48;;;5.50;;
6406;SDS011;3236;51.022;6.818;2023-07-09T01:37:52;11.00;;;6.70;;
6406;SDS011;3236;51.022;6.818;2023-07-09T01:40:20;10.32;;;5.88;;
6406;SDS011;3236;51.022;6.818;2023-07-09T01:42:49;12.68;;;6.80;;
6406;SDS011;3236;51.022;6.818;2023-07-09T01:45:17;9.93;;;6.07;;
6406;SDS011;3236;51.022;6.818;2023-07-09T01:47:45;10.02;;;6.00;;
6406;SDS011;3236;51.022;6.818;2023-07-09T01:50:12;17.73;;;7.00;;
6406;SDS011;3236;51.022;6.818;2023-07-09T01:52:42;11.85;;;6.32;;
6406;SDS011;3236;51.022;6.818;2023-07-09T01:55:12;10.95;;;6.35;;
6406;SDS011;3236;51.022;6.818;2023-07-09T01:57:45;11.18;;;6.45;;
6406;SDS011;3236;51.022;6.818;2023-07-09T02:00:12;13.85;;;7.00;;
6406;SDS011;3236;51.022;6.818;2023-07-09T02:02:41;10.77;;;6.20;;
6406;SDS011;3236;51.022;6.818;2023-07-09T02:05:09;12.10;;;5.88;;
6406;SDS011;3236;51.022;6.818;2023-07-09T02:07:38;12.35;;;6.25;;
6406;SDS011;3236;51.022;6.818;2023-07-09T02:10:05;12.48;;;7.00;;
6406;SDS011;3236;51.022;6.818;2023-07-09T02:12:34;10.10;;;6.55;;
6406;SDS011;3236;51.022;6.818;2023-07-09T02:15:01;11.73;;;6.60;;
6406;SDS011;3236;51.022;6.818;2023-07-09T02:17:29;11.60;;;6.00;;
6406;SDS011;3236;51.022;6.818;2023-07-09T02:19:56;13.82;;;6.25;;
6406;SDS011;3236;51.022;6.818;2023-07-09T02:22:23;10.15;;;6.13;;
6406;SDS011;3236;51.022;6.818;2023-07-09T02:24:50;11.55;;;6.30;;
6406;SDS011;3236;51.022;6.818;2023-07-09T02:27:20;12.73;;;6.03;;
6406;SDS011;3236;51.022;6.818;2023-07-09T02:29:49;10.25;;;6.68;;
6406;SDS011;3236;51.022;6.818;2023-07-09T02:32:17;13.82;;;6.40;;
6406;SDS011;3236;51.022;6.818;2023-07-09T02:34:45;12.45;;;6.65;;
6406;SDS011;3236;51.022;6.818;2023-07-09T02:37:14;10.27;;;6.50;;
6406;SDS011;3236;51.022;6.818;2023-07-09T02:39:43;12.50;;;7.15;;
6406;SDS011;3236;51.022;6.818;2023-07-09T02:42:11;17.95;;;6.93;;
6406;SDS011;3236;51.022;6.818;2023-07-09T02:44:39;11.40;;;6.57;;
6406;SDS011;3236;51.022;6.818;2023-07-09T02:47:09;15.75;;;7.47;;
6406;SDS011;3236;51.022;6.818;2023-07-09T02:49:36;16.10;;;7.30;;
6406;SDS011;3236;51.022;6.818;2023-07-09T02:52:04;13.05;;;7.55;;
6406;SDS011;3236;51.022;6.818;2023-07-09T02:54:32;13.10;;;6.90;;
6406;SDS011;3236;51.022;6.818;2023-07-09T02:56:59;17.23;;;6.55;;
6406;SDS011;3236;51.022;6.818;2023-07-09T02:59:26;14.07;;;6.95;;
6406;SDS011;3236;51.022;6.818;2023-07-09T03:01:55;11.95;;;6.22;;
6406;SDS011;3236;51.022;6.818;2023-07-09T03:04:24;10.57;;;6.47;;
6406;SDS011;3236;51.022;6.818;2023-07-09T03:07:00;11.80;;;6.30;;
6406;SDS011;3236;51.022;6.818;2023-07-09T03:09:30;10.98;;;6.50;;
6406;SDS011;3236;51.022;6.818;2023-07-09T03:11:58;11.98;;;6.82;;
6406;SDS011;3236;51.022;6.818;2023-07-09T03:14:25;14.95;;;7.15;;
6406;SDS011;3236;51.022;6.818;2023-07-09T03:17:01;12.07;;;6.93;;
6406;SDS011;3236;51.022;6.818;2023-07-09T03:19:30;10.98;;;6.85;;
6406;SDS011;3236;51.022;6.818;2023-07-09T03:22:01;16.38;;;7.18;;
6406;SDS011;3236;51.022;6.818;2023-07-09T03:24:28;12.43;;;6.38;;
6406;SDS011;3236;51.022;6.818;2023-07-09T03:26:56;14.13;;;7.43;;
6406;SDS011;3236;51.022;6.818;2023-07-09T03:29:29;10.95;;;6.88;;
6406;SDS011;3236;51.022;6.818;2023-07-09T03:31:56;12.07;;;6.25;;
6406;SDS011;3236;51.022;6.818;2023-07-09T03:34:23;11.88;;;6.57;;
6406;SDS011;3236;51.022;6.818;2023-07-09T03:36:57;11.23;;;6.15;;
6406;SDS011;3236;51.022;6.818;2023-07-09T03:39:24;17.40;;;7.05;;
6406;SDS011;3236;51.022;6.818;2023-07-09T03:41:51;14.45;;;6.40;;
6406;SDS011;3236;51.022;6.818;2023-07-09T03:44:18;11.65;;;6.82;;
6406;SDS011;3236;51.022;6.818;2023-07-09T03:46:46;13.35;;;6.82;;
6406;SDS011;3236;51.022;6.818;2023-07-09T03:49:13;10.77;;;6.18;;
6406;SDS011;3236;51.022;6.818;2023-07-09T03:51:40;9.40;;;6.35;;
6406;SDS011;3236;51.022;6.818;2023-07-09T03:54:09;12.18;;;6.28;;
6406;SDS011;3236;51.022;6.818;2023-07-09T03:56:36;10.43;;;6.03;;
6406;SDS011;3236;51.022;6.818;2023-07-09T03:59:03;9.65;;;5.95;;
6406;SDS011;3236;51.022;6.818;2023-07-09T04:01:30;11.95;;;6.35;;
6406;SDS011;3236;51.022;6.818;2023-07-09T04:03:58;12.02;;;6.53;;
6406;SDS011;3236;51.022;6.818;2023-07-09T04:06:25;11.82;;;6.50;;
6406;SDS011;3236;51.022;6.818;2023-07-09T04:08:52;15.20;;;6.15;;
6406;SDS011;3236;51.022;6.818;2023-07-09T04:11:21;10.20;;;6.53;;
6406;SDS011;3236;51.022;6.818;2023-07-09T04:13:48;11.07;;;6.68;;
6406;SDS011;3236;51.022;6.818;2023-07-09T04:16:17;10.70;;;6.63;;
6406;SDS011;3236;51.022;6.818;2023-07-09T04:18:44;12.32;;;6.30;;
6406;SDS011;3236;51.022;6.818;2023-07-09T04:21:12;11.23;;;6.20;;
6406;SDS011;3236;51.022;6.818;2023-07-09T04:23:39;13.07;;;6.22;;
6406;SDS011;3236;51.022;6.818;2023-07-09T04:26:09;13.32;;;6.10;;
6406;SDS011;3236;51.022;6.818;2023-07-09T04:28:41;7.97;;;6.05;;
6406;SDS011;3236;51.022;6.818;2023-07-09T04:31:08;11.55;;;6.63;;
6406;SDS011;3236;51.022;6.818;2023-07-09T04:33:36;10.15;;;6.40;;
6406;SDS011;3236;51.022;6.818;2023-07-09T04:36:03;16.42;;;6.53;;
6406;SDS011;3236;51.022;6.818;2023-07-09T04:38:31;8.60;;;6.32;;
6406;SDS011;3236;51.022;6.818;2023-07-09T04:40:58;17.75;;;6.95;;
6406;SDS011;3236;51.022;6.818;2023-07-09T04:43:35;11.27;;;6.18;;
6406;SDS011;3236;51.022;6.818;2023-07-09T04:46:09;11.27;;;6.75;;
6406;SDS011;3236;51.022;6.818;2023-07-09T04:48:36;19.50;;;6.95;;
6406;SDS011;3236;51.022;6.818;2023-07-09T04:51:04;10.52;;;6.57;;
6406;SDS011;3236;51.022;6.818;2023-07-09T04:53:31;13.02;;;6.40;;
6406;SDS011;3236;51.022;6.818;2023-07-09T04:55:59;14.52;;;6.72;;
6406;SDS011;3236;51.022;6.818;2023-07-09T04:58:34;12.50;;;6.38;;
6406;SDS011;3236;51.022;6.818;2023-07-09T05:01:02;11.25;;;6.22;;
6406;SDS011;3236;51.022;6.818;2023-07-09T05:03:30;10.52;;;6.03;;
6406;SDS011;3236;51.022;6.818;2023-07-09T05:05:57;11.85;;;5.93;;
6406;SDS011;3236;51.022;6.818;2023-07-09T05:08:24;13.30;;;6.47;;
6406;SDS011;3236;51.022;6.818;2023-07-09T05:10:57;9.93;;;5.82;;
6406;SDS011;3236;51.022;6.818;2023-07-09T05:13:25;9.32;;;5.88;;
6406;SDS011;3236;51.022;6.818;2023-07-09T05:15:52;12.40;;;6.45;;
6406;SDS011;3236;51.022;6.818;2023-07-09T05:18:21;10.98;;;6.30;;
6406;SDS011;3236;51.022;6.818;2023-07-09T05:20:50;17.88;;;6.00;;
6406;SDS011;3236;51.022;6.818;2023-07-09T05:23:17;8.90;;;5.88;;
6406;SDS011;3236;51.022;6.818;2023-07-09T05:25:44;9.63;;;5.35;;
6406;SDS011;3236;51.022;6.818;2023-07-09T05:28:11;9.75;;;5.38;;
6406;SDS011;3236;51.022;6.818;2023-07-09T05:30:41;8.10;;;5.20;;
6406;SDS011;3236;51.022;6.818;2023-07-09T05:33:09;10.00;;;5.60;;
6406;SDS011;3236;51.022;6.818;2023-07-09T05:35:39;11.70;;;6.43;;
6406;SDS011;3236;51.022;6.818;2023-07-09T05:38:18;12.07;;;5.68;;
6406;SDS011;3236;51.022;6.818;2023-07-09T05:40:45;12.85;;;5.30;;
6406;SDS011;3236;51.022;6.818;2023-07-09T05:43:13;12.55;;;4.93;;
6406;SDS011;3236;51.022;6.818;2023-07-09T05:45:40;10.15;;;5.05;;
6406;SDS011;3236;51.022;6.818;2023-07-09T05:48:07;9.60;;;4.50;;
6406;SDS011;3236;51.022;6.818;2023-07-09T05:50:35;8.63;;;5.00;;
6406;SDS011;3236;51.022;6.818;2023-07-09T05:53:03;8.88;;;5.10;;
6406;SDS011;3236;51.022;6.818;2023-07-09T05:55:32;9.85;;;5.03;;
6406;SDS011;3236;51.022;6.818;2023-07-09T05:57:59;8.90;;;4.60;;
6406;SDS011;3236;51.022;6.818;2023-07-09T06:00:28;8.90;;;4.70;;
6406;SDS011;3236;51.022;6.818;2023-07-09T06:02:58;14.50;;;5.10;;
6406;SDS011;3236;51.022;6.818;2023-07-09T06:05:27;6.68;;;4.75;;
6406;SDS011;3236;51.022;6.818;2023-07-09T06:07:55;9.88;;;4.75;;
6406;SDS011;3236;51.022;6.818;2023-07-09T06:10:23;11.82;;;5.10;;
6406;SDS011;3236;51.022;6.818;2023-07-09T06:12:51;10.55;;;5.20;;
6406;SDS011;3236;51.022;6.818;2023-07-09T06:15:18;8.77;;;5.15;;
6406;SDS011;3236;51.022;6.818;2023-07-09T06:17:45;8.70;;;4.43;;
6406;SDS011;3236;51.022;6.818;2023-07-09T06:20:12;13.75;;;5.30;;
6406;SDS011;3236;51.022;6.818;2023-07-09T06:22:40;7.88;;;4.75;;
6406;SDS011;3236;51.022;6.818;2023-07-09T06:25:08;8.27;;;4.95;;
6406;SDS011;3236;51.022;6.818;2023-07-09T06:27:38;10.38;;;5.00;;
6406;SDS011;3236;51.022;6.818;2023-07-09T06:30:07;8.98;;;5.05;;
6406;SDS011;3236;51.022;6.818;2023-07-09T06:32:35;9.00;;;4.57;;
6406;SDS011;3236;51.022;6.818;2023-07-09T06:35:02;8.43;;;5.20;;
6406;SDS011;3236;51.022;6.818;2023-07-09T06:37:30;9.57;;;4.40;;
6406;SDS011;3236;51.022;6.818;2023-07-09T06:39:57;10.30;;;4.97;;
6406;SDS011;3236;51.022;6.818;2023-07-09T06:42:24;9.93;;;4.63;;
6406;SDS011;3236;51.022;6.818;2023-07-09T06:44:52;12.85;;;4.68;;
6406;SDS011;3236;51.022;6.818;2023-07-09T06:47:23;15.07;;;5.15;;
6406;SDS011;3236;51.022;6.818;2023-07-09T06:52:17;10.13;;;4.80;;
6406;SDS011;3236;51.022;6.818;2023-07-09T06:54:44;12.43;;;5.07;;
6406;SDS011;3236;51.022;6.818;2023-07-09T06:57:11;10.68;;;5.30;;
6406;SDS011;3236;51.022;6.818;2023-07-09T06:59:39;9.23;;;5.13;;
6406;SDS011;3236;51.022;6.818;2023-07-09T07:02:07;6.85;;;4.63;;
6406;SDS011;3236;51.022;6.818;2023-07-09T07:04:36;8.73;;;4.82;;
6406;SDS011;3236;51.022;6.818;2023-07-09T07:07:03;12.48;;;5.00;;
6406;SDS011;3236;51.022;6.818;2023-07-09T07:09:36;8.65;;;4.90;;
6406;SDS011;3236;51.022;6.818;2023-07-09T07:12:04;6.90;;;4.38;;
6406;SDS011;3236;51.022;6.818;2023-07-09T07:14:31;6.88;;;4.30;;
6406;SDS011;3236;51.022;6.818;2023-07-09T07:17:01;9.57;;;4.75;;
6406;SDS011;3236;51.022;6.818;2023-07-09T07:19:32;10.32;;;4.25;;
6406;SDS011;3236;51.022;6.818;2023-07-09T07:22:00;11.55;;;5.00;;
6406;SDS011;3236;51.022;6.818;2023-07-09T07:24:27;9.35;;;4.43;;
6406;SDS011;3236;51.022;6.818;2023-07-09T07:26:55;9.23;;;4.82;;
6406;SDS011;3236;51.022;6.818;2023-07-09T07:29:22;11.57;;;4.78;;
6406;SDS011;3236;51.022;6.818;2023-07-09T07:31:49;8.10;;;4.25;;
6406;SDS011;3236;51.022;6.818;2023-07-09T07:34:16;7.50;;;4.85;;
6406;SDS011;3236;51.022;6.818;2023-07-09T07:36:50;8.25;;;4.50;;
6406;SDS011;3236;51.022;6.818;2023-07-09T07:39:19;9.40;;;4.75;;
6406;SDS011;3236;51.022;6.818;2023-07-09T07:41:46;7.32;;;4.43;;
6406;SDS011;3236;51.022;6.818;2023-07-09T07:44:24;7.32;;;3.88;;
6406;SDS011;3236;51.022;6.818;2023-07-09T07:46:52;10.45;;;4.85;;
6406;SDS011;3236;51.022;6.818;2023-07-09T07:49:19;7.35;;;4.00;;
6406;SDS011;3236;51.022;6.818;2023-07-09T07:51:46;10.23;;;4.50;;
6406;SDS011;3236;51.022;6.818;2023-07-09T07:54:13;6.75;;;4.40;;
6406;SDS011;3236;51.022;6.818;2023-07-09T07:56:44;9.13;;;4.93;;
6406;SDS011;3236;51.022;6.818;2023-07-09T07:59:13;11.60;;;4.32;;
6406;SDS011;3236;51.022;6.818;2023-07-09T08:01:40;6.60;;;4.45;;
6406;SDS011;3236;51.022;6.818;2023-07-09T08:04:13;9.38;;;4.20;;
6406;SDS011;3236;51.022;6.818;2023-07-09T08:06:40;10.43;;;4.72;;
6406;SDS011;3236;51.022;6.818;2023-07-09T08:09:07;8.77;;;4.63;;
6406;SDS011;3236;51.022;6.818;2023-07-09T08:11:34;7.03;;;4.10;;
6406;SDS011;3236;51.022;6.818;2023-07-09T08:14:03;5.50;;;3.90;;
6406;SDS011;3236;51.022;6.818;2023-07-09T08:16:31;11.38;;;4.90;;
6406;SDS011;3236;51.022;6.818;2023-07-09T08:19:01;8.02;;;5.28;;
6406;SDS011;3236;51.022;6.818;2023-07-09T08:21:28;7.15;;;4.05;;
6406;SDS011;3236;51.022;6.818;2023-07-09T08:23:55;9.98;;;4.78;;
6406;SDS011;3236;51.022;6.818;2023-07-09T08:26:22;7.53;;;4.75;;
6406;SDS011;3236;51.022;6.818;2023-07-09T08:28:49;8.23;;;4.60;;
6406;SDS011;3236;51.022;6.818;2023-07-09T08:31:18;13.18;;;5.25;;
6406;SDS011;3236;51.022;6.818;2023-07-09T08:33:45;7.03;;;4.05;;
6406;SDS011;3236;51.022;6.818;2023-07-09T08:36:17;6.97;;;4.20;;
6406;SDS011;3236;51.022;6.818;2023-07-09T08:38:45;6.22;;;4.10;;
6406;SDS011;3236;51.022;6.818;2023-07-09T08:41:15;12.32;;;4.20;;
6406;SDS011;3236;51.022;6.818;2023-07-09T08:44:21;8.13;;;4.03;;
6406;SDS011;3236;51.022;6.818;2023-07-09T08:47:05;6.25;;;4.35;;
6406;SDS011;3236;51.022;6.818;2023-07-09T08:49:40;8.20;;;4.47;;
6406;SDS011;3236;51.022;6.818;2023-07-09T08:52:13;8.48;;;4.93;;
6406;SDS011;3236;51.022;6.818;2023-07-09T08:54:46;8.40;;;3.70;;
6406;SDS011;3236;51.022;6.818;2023-07-09T08:57:18;9.57;;;4.60;;
6406;SDS011;3236;51.022;6.818;2023-07-09T08:59:50;9.77;;;4.15;;
6406;SDS011;3236;51.022;6.818;2023-07-09T09:02:36;9.43;;;4.03;;
6406;SDS011;3236;51.022;6.818;2023-07-09T09:05:10;6.38;;;3.70;;
6406;SDS011;3236;51.022;6.818;2023-07-09T09:07:43;7.10;;;4.28;;
6406;SDS011;3236;51.022;6.818;2023-07-09T09:10:12;8.73;;;4.00;;
6406;SDS011;3236;51.022;6.818;2023-07-09T09:12:47;7.95;;;4.15;;
6406;SDS011;3236;51.022;6.818;2023-07-09T09:15:24;11.50;;;4.50;;
6406;SDS011;3236;51.022;6.818;2023-07-09T09:17:56;7.78;;;4.15;;
6406;SDS011;3236;51.022;6.818;2023-07-09T09:20:40;10.18;;;4.50;;
6406;SDS011;3236;51.022;6.818;2023-07-09T09:23:11;7.30;;;4.47;;
6406;SDS011;3236;51.022;6.818;2023-07-09T09:25:41;10.00;;;4.82;;
6406;SDS011;3236;51.022;6.818;2023-07-09T09:28:11;9.13;;;4.63;;
6406;SDS011;3236;51.022;6.818;2023-07-09T09:30:39;8.70;;;4.70;;
6406;SDS011;3236;51.022;6.818;2023-07-09T09:33:08;9.93;;;4.80;;
6406;SDS011;3236;51.022;6.818;2023-07-09T09:38:09;8.60;;;4.43;;
6406;SDS011;3236;51.022;6.818;2023-07-09T09:40:37;9.82;;;4.60;;
6406;SDS011;3236;51.022;6.818;2023-07-09T09:43:09;10.07;;;4.70;;
6406;SDS011;3236;51.022;6.818;2023-07-09T09:45:40;7.72;;;4.60;;
6406;SDS011;3236;51.022;6.818;2023-07-09T09:48:17;7.70;;;4.78;;
6406;SDS011;3236;51.022;6.818;2023-07-09T09:50:47;13.27;;;4.85;;
6406;SDS011;3236;51.022;6.818;2023-07-09T09:53:18;8.77;;;4.60;;
6406;SDS011;3236;51.022;6.818;2023-07-09T09:55:47;7.82;;;4.20;;
6406;SDS011;3236;51.022;6.818;2023-07-09T09:58:18;7.60;;;4.60;;
6406;SDS011;3236;51.022;6.818;2023-07-09T10:00:55;8.35;;;3.85;;
6406;SDS011;3236;51.022;6.818;2023-07-09T10:03:33;10.20;;;5.00;;
6406;SDS011;3236;51.022;6.818;2023-07-09T10:06:10;5.60;;;3.90;;
6406;SDS011;3236;51.022;6.818;2023-07-09T10:08:43;7.53;;;4.53;;
6406;SDS011;3236;51.022;6.818;2023-07-09T10:11:21;6.18;;;4.80;;
6406;SDS011;3236;51.022;6.818;2023-07-09T10:13:58;11.27;;;4.90;;
6406;SDS011;3236;51.022;6.818;2023-07-09T10:16:32;11.35;;;5.38;;
6406;SDS011;3236;51.022;6.818;2023-07-09T10:19:12;9.88;;;4.47;;
6406;SDS011;3236;51.022;6.818;2023-07-09T10:21:45;7.97;;;4.32;;
6406;SDS011;3236;51.022;6.818;2023-07-09T10:24:25;7.85;;;4.20;;
6406;SDS011;3236;51.022;6.818;2023-07-09T10:27:06;7.57;;;4.47;;
6406;SDS011;3236;51.022;6.818;2023-07-09T10:32:42;7.90;;;4.75;;
6406;SDS011;3236;51.022;6.818;2023-07-09T10:35:18;6.07;;;3.90;;
6406;SDS011;3236;51.022;6.818;2023-07-09T10:37:59;7.32;;;4.25;;
6406;SDS011;3236;51.022;6.818;2023-07-09T10:40:39;10.25;;;4.47;;
6406;SDS011;3236;51.022;6.818;2023-07-09T10:43:11;8.90;;;5.05;;
6406;SDS011;3236;51.022;6.818;2023-07-09T10:45:44;8.40;;;4.50;;
6406;SDS011;3236;51.022;6.818;2023-07-09T10:48:15;8.70;;;4.45;;
6406;SDS011;3236;51.022;6.818;2023-07-09T10:50:47;15.32;;;4.60;;
6406;SDS011;3236;51.022;6.818;2023-07-09T10:53:23;5.97;;;4.13;;
6406;SDS011;3236;51.022;6.818;2023-07-09T10:55:57;7.93;;;4.22;;
6406;SDS011;3236;51.022;6.818;2023-07-09T10:58:33;5.85;;;4.40;;
6406;SDS011;3236;51.022;6.818;2023-07-09T11:01:03;8.27;;;4.53;;
6406;SDS011;3236;51.022;6.818;2023-07-09T11:03:35;7.53;;;4.60;;
6406;SDS011;3236;51.022;6.818;2023-07-09T11:06:11;9.77;;;4.13;;
6406;SDS011;3236;51.022;6.818;2023-07-09T11:08:44;5.93;;;4.35;;
6406;SDS011;3236;51.022;6.818;2023-07-09T11:11:15;6.35;;;3.63;;
6406;SDS011;3236;51.022;6.818;2023-07-09T11:13:48;9.00;;;5.32;;
6406;SDS011;3236;51.022;6.818;2023-07-09T11:16:20;9.63;;;4.35;;
6406;SDS011;3236;51.022;6.818;2023-07-09T11:18:56;7.88;;;4.40;;
6406;SDS011;3236;51.022;6.818;2023-07-09T11:21:27;11.65;;;4.78;;
6406;SDS011;3236;51.022;6.818;2023-07-09T11:23:55;9.48;;;3.90;;
6406;SDS011;3236;51.022;6.818;2023-07-09T11:26:25;7.30;;;4.27;;
6406;SDS011;3236;51.022;6.818;2023-07-09T11:28:54;7.32;;;4.05;;
6406;SDS011;3236;51.022;6.818;2023-07-09T11:31:23;8.18;;;4.38;;
6406;SDS011;3236;51.022;6.818;2023-07-09T11:34:01;8.60;;;4.53;;
6406;SDS011;3236;51.022;6.818;2023-07-09T11:36:46;5.22;;;4.22;;
6406;SDS011;3236;51.022;6.818;2023-07-09T11:39:19;10.10;;;4.20;;
6406;SDS011;3236;51.022;6.818;2023-07-09T11:41:47;6.18;;;3.95;;
6406;SDS011;3236;51.022;6.818;2023-07-09T11:44:16;6.13;;;4.05;;
6406;SDS011;3236;51.022;6.818;2023-07-09T11:49:43;6.18;;;4.32;;
6406;SDS011;3236;51.022;6.818;2023-07-09T11:52:18;6.65;;;4.50;;
6406;SDS011;3236;51.022;6.818;2023-07-09T11:54:54;9.05;;;4.32;;
6406;SDS011;3236;51.022;6.818;2023-07-09T11:57:21;13.10;;;4.35;;
6406;SDS011;3236;51.022;6.818;2023-07-09T11:59:48;22.40;;;5.38;;
6406;SDS011;3236;51.022;6.818;2023-07-09T12:02:16;6.43;;;4.22;;
6406;SDS011;3236;51.022;6.818;2023-07-09T12:04:47;12.98;;;4.30;;
6406;SDS011;3236;51.022;6.818;2023-07-09T12:07:17;6.00;;;3.67;;
6406;SDS011;3236;51.022;6.818;2023-07-09T12:09:49;6.68;;;3.85;;
6406;SDS011;3236;51.022;6.818;2023-07-09T12:12:18;6.15;;;3.95;;
6406;SDS011;3236;51.022;6.818;2023-07-09T12:14:45;8.30;;;3.95;;
6406;SDS011;3236;51.022;6.818;2023-07-09T12:17:12;8.07;;;3.78;;
6406;SDS011;3236;51.022;6.818;2023-07-09T12:19:40;7.25;;;3.95;;
6406;SDS011;3236;51.022;6.818;2023-07-09T12:22:18;6.03;;;4.03;;
6406;SDS011;3236;51.022;6.818;2023-07-09T12:24:48;6.65;;;4.10;;
6406;SDS011;3236;51.022;6.818;2023-07-09T12:27:18;10.25;;;4.72;;
6406;SDS011;3236;51.022;6.818;2023-07-09T12:29:46;10.07;;;4.15;;
6406;SDS011;3236;51.022;6.818;2023-07-09T12:32:15;7.38;;;4.13;;
6406;SDS011;3236;51.022;6.818;2023-07-09T12:34:46;7.93;;;4.05;;
6406;SDS011;3236;51.022;6.818;2023-07-09T12:37:14;8.07;;;3.55;;
6406;SDS011;3236;51.022;6.818;2023-07-09T12:39:43;5.85;;;3.70;;
6406;SDS011;3236;51.022;6.818;2023-07-09T12:42:14;6.00;;;4.20;;
6406;SDS011;3236;51.022;6.818;2023-07-09T12:44:42;6.25;;;4.00;;
6406;SDS011;3236;51.022;6.818;2023-07-09T12:47:12;6.95;;;3.97;;
6406;SDS011;3236;51.022;6.818;2023-07-09T12:49:41;7.25;;;3.67;;
6406;SDS011;3236;51.022;6.818;2023-07-09T12:52:12;7.95;;;3.88;;
6406;SDS011;3236;51.022;6.818;2023-07-09T12:54:53;7.82;;;4.07;;
6406;SDS011;3236;51.022;6.818;2023-07-09T12:57:23;8.82;;;4.00;;
6406;SDS011;3236;51.022;6.818;2023-07-09T12:59:50;6.78;;;3.65;;
6406;SDS011;3236;51.022;6.818;2023-07-09T13:02:20;7.18;;;3.60;;
6406;SDS011;3236;51.022;6.818;2023-07-09T13:04:50;11.00;;;4.18;;
6406;SDS011;3236;51.022;6.818;2023-07-09T13:07:26;5.85;;;3.38;;
6406;SDS011;3236;51.022;6.818;2023-07-09T13:10:03;5.57;;;3.55;;
6406;SDS011;3236;51.022;6.818;2023-07-09T13:12:32;8.55;;;3.75;;
6406;SDS011;3236;51.022;6.818;2023-07-09T13:15:00;6.90;;;3.33;;
6406;SDS011;3236;51.022;6.818;2023-07-09T13:17:29;5.88;;;3.50;;
6406;SDS011;3236;51.022;6.818;2023-07-09T13:19:57;9.68;;;3.85;;
6406;SDS011;3236;51.022;6.818;2023-07-09T13:25:13;10.70;;;4.03;;
6406;SDS011;3236;51.022;6.818;2023-07-09T13:27:40;11.88;;;3.97;;
6406;SDS011;3236;51.022;6.818;2023-07-09T13:30:08;11.18;;;3.67;;
6406;SDS011;3236;51.022;6.818;2023-07-09T13:32:39;8.30;;;4.03;;
6406;SDS011;3236;51.022;6.818;2023-07-09T13:35:12;6.85;;;3.63;;
6406;SDS011;3236;51.022;6.818;2023-07-09T13:37:41;12.07;;;3.80;;
6406;SDS011;3236;51.022;6.818;2023-07-09T13:40:09;5.97;;;3.35;;
6406;SDS011;3236;51.022;6.818;2023-07-09T13:42:40;5.78;;;3.33;;
6406;SDS011;3236;51.022;6.818;2023-07-09T13:45:15;5.47;;;3.63;;
6406;SDS011;3236;51.022;6.818;2023-07-09T13:50:16;13.52;;;4.00;;
6406;SDS011;3236;51.022;6.818;2023-07-09T13:52:43;7.72;;;3.90;;
6406;SDS011;3236;51.022;6.818;2023-07-09T13:55:17;9.52;;;3.63;;
6406;SDS011;3236;51.022;6.818;2023-07-09T13:57:45;8.50;;;3.55;;
6406;SDS011;3236;51.022;6.818;2023-07-09T14:00:13;8.50;;;3.78;;
6406;SDS011;3236;51.022;6.818;2023-07-09T14:02:41;8.10;;;3.85;;
6406;SDS011;3236;51.022;6.818;2023-07-09T14:05:10;9.23;;;4.00;;
6406;SDS011;3236;51.022;6.818;2023-07-09T14:07:40;11.15;;;3.72;;
6406;SDS011;3236;51.022;6.818;2023-07-09T14:10:10;8.20;;;3.10;;
6406;SDS011;3236;51.022;6.818;2023-07-09T14:12:44;7.72;;;3.30;;
6406;SDS011;3236;51.022;6.818;2023-07-09T14:15:13;7.70;;;3.80;;
6406;SDS011;3236;51.022;6.818;2023-07-09T14:17:42;10.48;;;3.75;;
6406;SDS011;3236;51.022;6.818;2023-07-09T14:20:13;9.48;;;3.90;;
6406;SDS011;3236;51.022;6.818;2023-07-09T14:22:41;7.82;;;4.07;;
6406;SDS011;3236;51.022;6.818;2023-07-09T14:25:14;12.10;;;4.07;;
6406;SDS011;3236;51.022;6.818;2023-07-09T14:27:45;9.95;;;4.30;;
6406;SDS011;3236;51.022;6.818;2023-07-09T14:30:15;15.70;;;3.90;;
6406;SDS011;3236;51.022;6.818;2023-07-09T14:32:44;8.85;;;2.80;;
6406;SDS011;3236;51.022;6.818;2023-07-09T14:35:13;5.75;;;3.25;;
6406;SDS011;3236;51.022;6.818;2023-07-09T14:37:42;8.57;;;4.05;;
6406;SDS011;3236;51.022;6.818;2023-07-09T14:40:10;16.52;;;3.78;;
6406;SDS011;3236;51.022;6.818;2023-07-09T14:42:39;8.00;;;3.65;;
6406;SDS011;3236;51.022;6.818;2023-07-09T14:45:15;13.55;;;4.28;;
6406;SDS011;3236;51.022;6.818;2023-07-09T14:47:44;6.07;;;3.53;;
6406;SDS011;3236;51.022;6.818;2023-07-09T14:50:11;9.68;;;3.92;;
6406;SDS011;3236;51.022;6.818;2023-07-09T14:52:38;11.60;;;4.28;;
6406;SDS011;3236;51.022;6.818;2023-07-09T14:55:15;12.88;;;5.35;;
6406;SDS011;3236;51.022;6.818;2023-07-09T14:57:43;9.85;;;4.82;;
6406;SDS011;3236;51.022;6.818;2023-07-09T15:00:16;17.80;;;5.63;;
6406;SDS011;3236;51.022;6.818;2023-07-09T15:02:45;9.98;;;4.03;;
6406;SDS011;3236;51.022;6.818;2023-07-09T15:05:17;10.32;;;4.13;;
6406;SDS011;3236;51.022;6.818;2023-07-09T15:07:46;7.05;;;3.75;;
6406;SDS011;3236;51.022;6.818;2023-07-09T15:10:14;11.73;;;4.60;;
6406;SDS011;3236;51.022;6.818;2023-07-09T15:12:42;7.55;;;4.50;;
6406;SDS011;3236;51.022;6.818;2023-07-09T15:15:17;15.57;;;5.13;;
6406;SDS011;3236;51.022;6.818;2023-07-09T15:17:47;11.55;;;6.15;;
6406;SDS011;3236;51.022;6.818;2023-07-09T15:20:16;9.50;;;5.03;;
6406;SDS011;3236;51.022;6.818;2023-07-09T15:22:45;10.60;;;6.28;;
6406;SDS011;3236;51.022;6.818;2023-07-09T15:25:17;11.88;;;7.70;;
6406;SDS011;3236;51.022;6.818;2023-07-09T15:27:46;12.13;;;8.18;;
6406;SDS011;3236;51.022;6.818;2023-07-09T15:30:16;17.48;;;8.98;;
6406;SDS011;3236;51.022;6.818;2023-07-09T15:32:45;15.95;;;8.68;;
6406;SDS011;3236;51.022;6.818;2023-07-09T15:35:13;13.05;;;8.57;;
6406;SDS011;3236;51.022;6.818;2023-07-09T15:37:42;11.05;;;7.82;;
6406;SDS011;3236;51.022;6.818;2023-07-09T15:40:15;13.02;;;6.53;;
6406;SDS011;3236;51.022;6.818;2023-07-09T15:42:44;12.55;;;6.25;;
6406;SDS011;3236;51.022;6.818;2023-07-09T15:45:13;12.27;;;6.70;;